sensor_id;sensor_type;location;lat;lon;timestamp;P1;durP1;ratioP1;P2;durP2;ratioP2
40591;SDS011;26301;42.832;23.918;2023-09-19T00:00:11;9.48;;;6.18;;
40591;SDS011;26301;42.832;23.918;2023-09-19T00:07:03;9.73;;;6.55;;
40591;SDS011;26301;42.832;23.918;2023-09-19T00:13:19;8.70;;;6.05;;
40591;SDS011;26301;42.832;23.918;2023-09-19T00:22:28;9.68;;;6.95;;
40591;SDS011;26301;42.832;23.918;2023-09-19T00:32:32;10.05;;;6.75;;
40591;SDS011;26301;42.832;23.918;2023-09-19T00:39:10;11.88;;;7.68;;
40591;SDS011;26301;42.832;23.918;2023-09-19T00:42:08;12.63;;;6.78;;
40591;SDS011;26301;42.832;23.918;2023-09-19T00:48:40;13.07;;;7.38;;
40591;SDS011;26301;42.832;23.918;2023-09-19T00:55:04;9.82;;;6.80;;
40591;SDS011;26301;42.832;23.918;2023-09-19T01:04:46;8.25;;;6.72;;
40591;SDS011;26301;42.832;23.918;2023-09-19T01:07:46;12.48;;;7.50;;
40591;SDS011;26301;42.832;23.918;2023-09-19T01:17:57;9.15;;;6.85;;
40591;SDS011;26301;42.832;23.918;2023-09-19T01:55:15;12.50;;;6.57;;
40591;SDS011;26301;42.832;23.918;2023-09-19T01:58:01;9.68;;;7.10;;
40591;SDS011;26301;42.832;23.918;2023-09-19T02:01:22;12.18;;;6.78;;
40591;SDS011;26301;42.832;23.918;2023-09-19T02:04:43;11.45;;;7.55;;
40591;SDS011;26301;42.832;23.918;2023-09-19T02:10:52;14.25;;;7.97;;
40591;SDS011;26301;42.832;23.918;2023-09-19T02:17:32;9.95;;;7.60;;
40591;SDS011;26301;42.832;23.918;2023-09-19T02:20:54;11.40;;;7.00;;
40591;SDS011;26301;42.832;23.918;2023-09-19T02:24:01;10.73;;;7.45;;
40591;SDS011;26301;42.832;23.918;2023-09-19T02:30:36;11.02;;;7.18;;
40591;SDS011;26301;42.832;23.918;2023-09-19T02:40:50;14.38;;;7.97;;
40591;SDS011;26301;42.832;23.918;2023-09-19T02:54:35;10.23;;;7.03;;
40591;SDS011;26301;42.832;23.918;2023-09-19T02:57:46;16.67;;;7.72;;
40591;SDS011;26301;42.832;23.918;2023-09-19T03:11:38;15.80;;;7.40;;
40591;SDS011;26301;42.832;23.918;2023-09-19T03:22:27;9.68;;;7.82;;
40591;SDS011;26301;42.832;23.918;2023-09-19T03:25:23;15.23;;;7.65;;
40591;SDS011;26301;42.832;23.918;2023-09-19T03:28:36;11.05;;;7.32;;
40591;SDS011;26301;42.832;23.918;2023-09-19T03:35:15;10.85;;;7.45;;
40591;SDS011;26301;42.832;23.918;2023-09-19T03:52:31;10.02;;;7.68;;
40591;SDS011;26301;42.832;23.918;2023-09-19T04:05:00;11.65;;;8.63;;
40591;SDS011;26301;42.832;23.918;2023-09-19T04:15:23;12.75;;;9.10;;
40591;SDS011;26301;42.832;23.918;2023-09-19T04:32:42;13.48;;;8.20;;
40591;SDS011;26301;42.832;23.918;2023-09-19T04:39:19;10.85;;;8.65;;
40591;SDS011;26301;42.832;23.918;2023-09-19T04:58:43;9.98;;;8.68;;
40591;SDS011;26301;42.832;23.918;2023-09-19T05:01:44;12.35;;;9.00;;
40591;SDS011;26301;42.832;23.918;2023-09-19T05:08:24;11.20;;;8.43;;
40591;SDS011;26301;42.832;23.918;2023-09-19T05:11:38;12.50;;;7.75;;
40591;SDS011;26301;42.832;23.918;2023-09-19T05:14:43;11.57;;;7.75;;
40591;SDS011;26301;42.832;23.918;2023-09-19T05:17:37;9.35;;;7.70;;
40591;SDS011;26301;42.832;23.918;2023-09-19T05:30:10;9.88;;;8.55;;
40591;SDS011;26301;42.832;23.918;2023-09-19T05:33:15;12.85;;;8.20;;
40591;SDS011;26301;42.832;23.918;2023-09-19T05:35:44;12.15;;;8.13;;
40591;SDS011;26301;42.832;23.918;2023-09-19T05:38:12;9.40;;;7.63;;
40591;SDS011;26301;42.832;23.918;2023-09-19T05:40:39;9.82;;;7.75;;
40591;SDS011;26301;42.832;23.918;2023-09-19T05:43:07;9.10;;;7.85;;
40591;SDS011;26301;42.832;23.918;2023-09-19T05:45:33;8.98;;;7.68;;
40591;SDS011;26301;42.832;23.918;2023-09-19T05:48:10;8.50;;;6.70;;
40591;SDS011;26301;42.832;23.918;2023-09-19T05:50:39;11.00;;;7.72;;
40591;SDS011;26301;42.832;23.918;2023-09-19T05:53:05;8.15;;;7.28;;
40591;SDS011;26301;42.832;23.918;2023-09-19T05:55:31;8.85;;;7.15;;
40591;SDS011;26301;42.832;23.918;2023-09-19T05:57:58;9.77;;;6.65;;
40591;SDS011;26301;42.832;23.918;2023-09-19T06:00:24;9.18;;;6.57;;
40591;SDS011;26301;42.832;23.918;2023-09-19T06:02:55;8.02;;;6.40;;
40591;SDS011;26301;42.832;23.918;2023-09-19T06:05:23;8.63;;;6.20;;
40591;SDS011;26301;42.832;23.918;2023-09-19T06:07:49;11.23;;;6.70;;
40591;SDS011;26301;42.832;23.918;2023-09-19T06:10:17;10.05;;;7.15;;
40591;SDS011;26301;42.832;23.918;2023-09-19T06:12:43;8.68;;;7.07;;
40591;SDS011;26301;42.832;23.918;2023-09-19T06:15:09;7.38;;;6.55;;
40591;SDS011;26301;42.832;23.918;2023-09-19T06:17:40;8.82;;;7.00;;
40591;SDS011;26301;42.832;23.918;2023-09-19T06:20:11;8.23;;;6.30;;
40591;SDS011;26301;42.832;23.918;2023-09-19T06:22:44;9.00;;;6.38;;
40591;SDS011;26301;42.832;23.918;2023-09-19T06:25:10;10.98;;;5.90;;
40591;SDS011;26301;42.832;23.918;2023-09-19T06:27:38;8.48;;;5.93;;
40591;SDS011;26301;42.832;23.918;2023-09-19T06:30:07;9.73;;;5.55;;
40591;SDS011;26301;42.832;23.918;2023-09-19T06:32:34;11.30;;;5.60;;
40591;SDS011;26301;42.832;23.918;2023-09-19T06:35:01;11.27;;;6.05;;
40591;SDS011;26301;42.832;23.918;2023-09-19T06:37:28;10.65;;;5.60;;
40591;SDS011;26301;42.832;23.918;2023-09-19T06:39:54;7.65;;;5.10;;
40591;SDS011;26301;42.832;23.918;2023-09-19T06:42:19;6.30;;;5.63;;
40591;SDS011;26301;42.832;23.918;2023-09-19T06:44:47;6.25;;;5.35;;
40591;SDS011;26301;42.832;23.918;2023-09-19T06:47:13;6.25;;;5.63;;
40591;SDS011;26301;42.832;23.918;2023-09-19T06:49:39;11.95;;;5.13;;
40591;SDS011;26301;42.832;23.918;2023-09-19T06:52:04;6.95;;;5.35;;
40591;SDS011;26301;42.832;23.918;2023-09-19T06:54:30;8.15;;;5.13;;
40591;SDS011;26301;42.832;23.918;2023-09-19T06:56:56;9.95;;;5.43;;
40591;SDS011;26301;42.832;23.918;2023-09-19T06:59:25;7.05;;;5.28;;
40591;SDS011;26301;42.832;23.918;2023-09-19T07:01:50;7.57;;;5.15;;
40591;SDS011;26301;42.832;23.918;2023-09-19T07:04:16;5.93;;;4.90;;
40591;SDS011;26301;42.832;23.918;2023-09-19T07:06:44;7.90;;;5.15;;
40591;SDS011;26301;42.832;23.918;2023-09-19T07:09:14;6.70;;;5.53;;
40591;SDS011;26301;42.832;23.918;2023-09-19T07:11:40;9.60;;;5.45;;
40591;SDS011;26301;42.832;23.918;2023-09-19T07:14:07;7.53;;;5.75;;
40591;SDS011;26301;42.832;23.918;2023-09-19T07:16:36;7.90;;;5.47;;
40591;SDS011;26301;42.832;23.918;2023-09-19T07:19:04;5.78;;;5.10;;
40591;SDS011;26301;42.832;23.918;2023-09-19T07:21:29;7.85;;;5.18;;
40591;SDS011;26301;42.832;23.918;2023-09-19T07:23:55;6.55;;;4.50;;
40591;SDS011;26301;42.832;23.918;2023-09-19T07:26:21;8.32;;;5.68;;
40591;SDS011;26301;42.832;23.918;2023-09-19T07:28:47;6.90;;;5.47;;
40591;SDS011;26301;42.832;23.918;2023-09-19T07:31:12;6.28;;;5.03;;
40591;SDS011;26301;42.832;23.918;2023-09-19T07:33:39;8.27;;;5.93;;
40591;SDS011;26301;42.832;23.918;2023-09-19T07:36:05;9.32;;;8.32;;
40591;SDS011;26301;42.832;23.918;2023-09-19T07:38:35;8.65;;;6.13;;
40591;SDS011;26301;42.832;23.918;2023-09-19T07:41:01;9.90;;;5.13;;
40591;SDS011;26301;42.832;23.918;2023-09-19T07:43:27;7.68;;;5.20;;
40591;SDS011;26301;42.832;23.918;2023-09-19T07:45:53;6.55;;;5.00;;
40591;SDS011;26301;42.832;23.918;2023-09-19T07:48:19;8.88;;;4.90;;
40591;SDS011;26301;42.832;23.918;2023-09-19T07:50:44;5.82;;;4.82;;
40591;SDS011;26301;42.832;23.918;2023-09-19T07:53:10;5.03;;;4.20;;
40591;SDS011;26301;42.832;23.918;2023-09-19T07:55:38;6.28;;;4.22;;
40591;SDS011;26301;42.832;23.918;2023-09-19T07:58:06;10.32;;;5.10;;
40591;SDS011;26301;42.832;23.918;2023-09-19T08:00:32;6.65;;;4.25;;
40591;SDS011;26301;42.832;23.918;2023-09-19T08:03:00;5.88;;;4.22;;
40591;SDS011;26301;42.832;23.918;2023-09-19T08:05:26;5.43;;;4.25;;
40591;SDS011;26301;42.832;23.918;2023-09-19T08:07:51;8.43;;;4.07;;
40591;SDS011;26301;42.832;23.918;2023-09-19T08:10:19;9.25;;;4.28;;
40591;SDS011;26301;42.832;23.918;2023-09-19T08:12:46;5.95;;;4.10;;
40591;SDS011;26301;42.832;23.918;2023-09-19T08:15:13;4.60;;;3.72;;
40591;SDS011;26301;42.832;23.918;2023-09-19T08:17:40;5.93;;;4.10;;
40591;SDS011;26301;42.832;23.918;2023-09-19T08:20:07;5.95;;;4.57;;
40591;SDS011;26301;42.832;23.918;2023-09-19T08:22:41;5.63;;;4.30;;
40591;SDS011;26301;42.832;23.918;2023-09-19T08:25:17;5.63;;;3.83;;
40591;SDS011;26301;42.832;23.918;2023-09-19T08:27:44;6.57;;;4.38;;
40591;SDS011;26301;42.832;23.918;2023-09-19T08:30:13;8.35;;;4.97;;
40591;SDS011;26301;42.832;23.918;2023-09-19T08:32:49;5.47;;;4.03;;
40591;SDS011;26301;42.832;23.918;2023-09-19T08:35:15;5.88;;;4.30;;
40591;SDS011;26301;42.832;23.918;2023-09-19T08:37:42;5.90;;;4.35;;
40591;SDS011;26301;42.832;23.918;2023-09-19T08:40:10;6.90;;;4.28;;
40591;SDS011;26301;42.832;23.918;2023-09-19T08:42:47;5.97;;;4.13;;
40591;SDS011;26301;42.832;23.918;2023-09-19T08:45:14;6.97;;;4.22;;
40591;SDS011;26301;42.832;23.918;2023-09-19T08:47:44;6.25;;;4.65;;
40591;SDS011;26301;42.832;23.918;2023-09-19T08:52:48;5.30;;;4.03;;
40591;SDS011;26301;42.832;23.918;2023-09-19T08:55:19;5.97;;;4.32;;
40591;SDS011;26301;42.832;23.918;2023-09-19T08:57:51;6.85;;;4.60;;
40591;SDS011;26301;42.832;23.918;2023-09-19T09:00:24;6.07;;;4.45;;
40591;SDS011;26301;42.832;23.918;2023-09-19T09:02:52;6.40;;;4.90;;
40591;SDS011;26301;42.832;23.918;2023-09-19T09:05:20;7.03;;;4.35;;
40591;SDS011;26301;42.832;23.918;2023-09-19T09:07:51;7.00;;;4.50;;
40591;SDS011;26301;42.832;23.918;2023-09-19T09:10:19;6.10;;;4.13;;
40591;SDS011;26301;42.832;23.918;2023-09-19T09:12:48;5.20;;;3.97;;
40591;SDS011;26301;42.832;23.918;2023-09-19T09:15:22;6.80;;;3.70;;
40591;SDS011;26301;42.832;23.918;2023-09-19T09:17:51;5.10;;;4.20;;
40591;SDS011;26301;42.832;23.918;2023-09-19T09:20:21;6.53;;;4.22;;
40591;SDS011;26301;42.832;23.918;2023-09-19T09:22:53;6.60;;;4.00;;
40591;SDS011;26301;42.832;23.918;2023-09-19T09:25:20;6.60;;;4.30;;
40591;SDS011;26301;42.832;23.918;2023-09-19T09:27:58;6.07;;;4.95;;
40591;SDS011;26301;42.832;23.918;2023-09-19T09:30:35;5.88;;;3.92;;
40591;SDS011;26301;42.832;23.918;2023-09-19T09:33:09;6.15;;;4.82;;
40591;SDS011;26301;42.832;23.918;2023-09-19T09:35:51;8.57;;;4.65;;
40591;SDS011;26301;42.832;23.918;2023-09-19T09:40:51;5.78;;;3.78;;
40591;SDS011;26301;42.832;23.918;2023-09-19T09:43:30;5.07;;;4.10;;
40591;SDS011;26301;42.832;23.918;2023-09-19T09:46:11;6.13;;;3.90;;
40591;SDS011;26301;42.832;23.918;2023-09-19T09:48:46;9.02;;;4.00;;
40591;SDS011;26301;42.832;23.918;2023-09-19T09:51:33;5.78;;;4.63;;
40591;SDS011;26301;42.832;23.918;2023-09-19T09:54:11;5.75;;;4.03;;
40591;SDS011;26301;42.832;23.918;2023-09-19T09:59:19;4.55;;;4.00;;
40591;SDS011;26301;42.832;23.918;2023-09-19T10:01:49;7.35;;;4.18;;
40591;SDS011;26301;42.832;23.918;2023-09-19T10:04:27;5.60;;;4.05;;
40591;SDS011;26301;42.832;23.918;2023-09-19T10:07:01;6.10;;;4.28;;
40591;SDS011;26301;42.832;23.918;2023-09-19T10:09:45;9.38;;;4.20;;
40591;SDS011;26301;42.832;23.918;2023-09-19T10:12:12;4.82;;;4.07;;
40591;SDS011;26301;42.832;23.918;2023-09-19T10:14:41;7.00;;;3.85;;
40591;SDS011;26301;42.832;23.918;2023-09-19T10:17:12;5.38;;;4.15;;
40591;SDS011;26301;42.832;23.918;2023-09-19T10:19:54;5.47;;;3.97;;
40591;SDS011;26301;42.832;23.918;2023-09-19T10:22:27;5.28;;;4.05;;
40591;SDS011;26301;42.832;23.918;2023-09-19T10:24:56;4.97;;;3.90;;
40591;SDS011;26301;42.832;23.918;2023-09-19T10:27:25;8.52;;;4.30;;
40591;SDS011;26301;42.832;23.918;2023-09-19T10:29:51;5.50;;;3.47;;
40591;SDS011;26301;42.832;23.918;2023-09-19T10:32:22;4.97;;;3.53;;
40591;SDS011;26301;42.832;23.918;2023-09-19T10:34:48;6.57;;;3.92;;
40591;SDS011;26301;42.832;23.918;2023-09-19T10:37:18;6.38;;;4.03;;
40591;SDS011;26301;42.832;23.918;2023-09-19T10:42:14;4.22;;;3.83;;
40591;SDS011;26301;42.832;23.918;2023-09-19T10:44:46;4.97;;;3.92;;
40591;SDS011;26301;42.832;23.918;2023-09-19T10:47:19;8.85;;;4.07;;
40591;SDS011;26301;42.832;23.918;2023-09-19T10:49:48;6.55;;;4.00;;
40591;SDS011;26301;42.832;23.918;2023-09-19T10:52:14;6.57;;;4.20;;
40591;SDS011;26301;42.832;23.918;2023-09-19T10:54:48;5.80;;;4.10;;
40591;SDS011;26301;42.832;23.918;2023-09-19T10:57:22;7.60;;;3.80;;
40591;SDS011;26301;42.832;23.918;2023-09-19T11:00:05;7.70;;;3.88;;
40591;SDS011;26301;42.832;23.918;2023-09-19T11:05:37;5.10;;;3.85;;
40591;SDS011;26301;42.832;23.918;2023-09-19T11:08:09;7.70;;;3.42;;
40591;SDS011;26301;42.832;23.918;2023-09-19T11:10:46;6.47;;;3.65;;
40591;SDS011;26301;42.832;23.918;2023-09-19T11:13:31;5.40;;;3.80;;
40591;SDS011;26301;42.832;23.918;2023-09-19T11:26:50;4.57;;;3.55;;
40591;SDS011;26301;42.832;23.918;2023-09-19T11:29:26;5.82;;;3.40;;
40591;SDS011;26301;42.832;23.918;2023-09-19T11:31:54;4.40;;;3.67;;
40591;SDS011;26301;42.832;23.918;2023-09-19T11:34:43;9.38;;;3.80;;
40591;SDS011;26301;42.832;23.918;2023-09-19T11:40:05;5.13;;;3.50;;
40591;SDS011;26301;42.832;23.918;2023-09-19T11:45:34;6.93;;;4.07;;
40591;SDS011;26301;42.832;23.918;2023-09-19T11:50:41;5.78;;;3.30;;
40591;SDS011;26301;42.832;23.918;2023-09-19T11:53:10;5.40;;;3.45;;
40591;SDS011;26301;42.832;23.918;2023-09-19T11:55:38;5.95;;;3.85;;
40591;SDS011;26301;42.832;23.918;2023-09-19T11:58:06;4.85;;;3.30;;
40591;SDS011;26301;42.832;23.918;2023-09-19T12:00:34;4.07;;;3.30;;
40591;SDS011;26301;42.832;23.918;2023-09-19T12:03:07;5.53;;;3.50;;
40591;SDS011;26301;42.832;23.918;2023-09-19T12:05:34;6.70;;;3.47;;
40591;SDS011;26301;42.832;23.918;2023-09-19T12:08:02;5.85;;;3.33;;
40591;SDS011;26301;42.832;23.918;2023-09-19T12:10:32;5.25;;;3.88;;
40591;SDS011;26301;42.832;23.918;2023-09-19T12:12:58;5.57;;;3.92;;
40591;SDS011;26301;42.832;23.918;2023-09-19T12:15:27;4.18;;;3.72;;
40591;SDS011;26301;42.832;23.918;2023-09-19T12:17:59;5.80;;;3.70;;
40591;SDS011;26301;42.832;23.918;2023-09-19T12:20:25;4.75;;;3.50;;
40591;SDS011;26301;42.832;23.918;2023-09-19T12:23:12;7.55;;;3.67;;
40591;SDS011;26301;42.832;23.918;2023-09-19T12:25:42;6.25;;;3.38;;
40591;SDS011;26301;42.832;23.918;2023-09-19T12:28:11;8.52;;;4.03;;
40591;SDS011;26301;42.832;23.918;2023-09-19T12:30:37;7.47;;;3.80;;
40591;SDS011;26301;42.832;23.918;2023-09-19T12:33:14;6.03;;;3.65;;
40591;SDS011;26301;42.832;23.918;2023-09-19T12:35:51;9.05;;;3.88;;
40591;SDS011;26301;42.832;23.918;2023-09-19T12:38:22;4.47;;;3.50;;
40591;SDS011;26301;42.832;23.918;2023-09-19T12:40:54;5.63;;;4.45;;
40591;SDS011;26301;42.832;23.918;2023-09-19T12:43:28;5.53;;;3.70;;
40591;SDS011;26301;42.832;23.918;2023-09-19T12:45:57;6.15;;;4.10;;
40591;SDS011;26301;42.832;23.918;2023-09-19T12:48:25;7.03;;;4.10;;
40591;SDS011;26301;42.832;23.918;2023-09-19T12:56:11;4.93;;;3.45;;
40591;SDS011;26301;42.832;23.918;2023-09-19T13:01:18;8.40;;;4.25;;
40591;SDS011;26301;42.832;23.918;2023-09-19T13:03:44;6.05;;;4.25;;
40591;SDS011;26301;42.832;23.918;2023-09-19T13:06:11;7.35;;;3.78;;
40591;SDS011;26301;42.832;23.918;2023-09-19T13:08:39;6.93;;;3.90;;
40591;SDS011;26301;42.832;23.918;2023-09-19T13:11:13;5.85;;;3.72;;
40591;SDS011;26301;42.832;23.918;2023-09-19T13:13:46;5.00;;;3.83;;
40591;SDS011;26301;42.832;23.918;2023-09-19T13:16:21;7.90;;;3.85;;
40591;SDS011;26301;42.832;23.918;2023-09-19T13:18:51;6.18;;;3.65;;
40591;SDS011;26301;42.832;23.918;2023-09-19T13:21:31;5.88;;;3.78;;
40591;SDS011;26301;42.832;23.918;2023-09-19T13:24:24;5.93;;;4.00;;
40591;SDS011;26301;42.832;23.918;2023-09-19T13:27:04;7.68;;;4.05;;
40591;SDS011;26301;42.832;23.918;2023-09-19T13:29:31;7.55;;;4.10;;
40591;SDS011;26301;42.832;23.918;2023-09-19T13:31:57;5.68;;;3.47;;
40591;SDS011;26301;42.832;23.918;2023-09-19T13:34:23;4.72;;;3.75;;
40591;SDS011;26301;42.832;23.918;2023-09-19T13:36:49;5.15;;;3.60;;
40591;SDS011;26301;42.832;23.918;2023-09-19T13:39:15;7.28;;;4.10;;
40591;SDS011;26301;42.832;23.918;2023-09-19T13:41:41;6.55;;;3.90;;
40591;SDS011;26301;42.832;23.918;2023-09-19T13:44:09;6.35;;;4.53;;
40591;SDS011;26301;42.832;23.918;2023-09-19T13:46:36;7.18;;;4.20;;
40591;SDS011;26301;42.832;23.918;2023-09-19T13:49:05;7.88;;;3.85;;
40591;SDS011;26301;42.832;23.918;2023-09-19T13:51:31;5.97;;;3.80;;
40591;SDS011;26301;42.832;23.918;2023-09-19T13:53:57;5.97;;;4.40;;
40591;SDS011;26301;42.832;23.918;2023-09-19T13:56:24;8.75;;;4.15;;
40591;SDS011;26301;42.832;23.918;2023-09-19T13:58:53;6.70;;;4.38;;
40591;SDS011;26301;42.832;23.918;2023-09-19T14:01:27;7.57;;;3.60;;
40591;SDS011;26301;42.832;23.918;2023-09-19T14:03:52;6.00;;;3.92;;
40591;SDS011;26301;42.832;23.918;2023-09-19T14:06:22;5.22;;;3.55;;
40591;SDS011;26301;42.832;23.918;2023-09-19T14:08:48;5.78;;;3.67;;
40591;SDS011;26301;42.832;23.918;2023-09-19T14:11:15;6.13;;;3.67;;
40591;SDS011;26301;42.832;23.918;2023-09-19T14:13:41;5.07;;;3.33;;
40591;SDS011;26301;42.832;23.918;2023-09-19T14:16:09;4.50;;;3.45;;
40591;SDS011;26301;42.832;23.918;2023-09-19T14:18:35;4.38;;;3.65;;
40591;SDS011;26301;42.832;23.918;2023-09-19T14:21:04;4.60;;;3.40;;
40591;SDS011;26301;42.832;23.918;2023-09-19T14:23:36;6.82;;;3.35;;
40591;SDS011;26301;42.832;23.918;2023-09-19T14:26:03;9.52;;;3.70;;
40591;SDS011;26301;42.832;23.918;2023-09-19T14:28:30;4.93;;;3.58;;
40591;SDS011;26301;42.832;23.918;2023-09-19T14:30:58;6.88;;;3.90;;
40591;SDS011;26301;42.832;23.918;2023-09-19T14:33:29;5.07;;;2.83;;
40591;SDS011;26301;42.832;23.918;2023-09-19T14:35:54;4.50;;;3.38;;
40591;SDS011;26301;42.832;23.918;2023-09-19T14:38:20;5.85;;;3.60;;
40591;SDS011;26301;42.832;23.918;2023-09-19T14:40:46;7.78;;;3.80;;
40591;SDS011;26301;42.832;23.918;2023-09-19T14:43:11;5.45;;;4.07;;
40591;SDS011;26301;42.832;23.918;2023-09-19T14:45:37;8.35;;;3.95;;
40591;SDS011;26301;42.832;23.918;2023-09-19T14:48:03;7.93;;;3.75;;
40591;SDS011;26301;42.832;23.918;2023-09-19T14:50:30;6.05;;;3.95;;
40591;SDS011;26301;42.832;23.918;2023-09-19T14:52:56;5.88;;;4.13;;
40591;SDS011;26301;42.832;23.918;2023-09-19T14:55:23;6.85;;;3.72;;
40591;SDS011;26301;42.832;23.918;2023-09-19T14:57:49;7.68;;;3.80;;
40591;SDS011;26301;42.832;23.918;2023-09-19T15:00:16;6.43;;;3.83;;
40591;SDS011;26301;42.832;23.918;2023-09-19T15:02:45;9.20;;;3.90;;
40591;SDS011;26301;42.832;23.918;2023-09-19T15:05:13;6.93;;;4.10;;
40591;SDS011;26301;42.832;23.918;2023-09-19T15:07:40;5.20;;;3.70;;
40591;SDS011;26301;42.832;23.918;2023-09-19T15:10:06;6.57;;;4.40;;
40591;SDS011;26301;42.832;23.918;2023-09-19T15:12:35;5.93;;;4.32;;
40591;SDS011;26301;42.832;23.918;2023-09-19T15:15:03;8.70;;;5.35;;
40591;SDS011;26301;42.832;23.918;2023-09-19T15:17:35;9.00;;;4.65;;
40591;SDS011;26301;42.832;23.918;2023-09-19T15:20:01;11.43;;;4.47;;
40591;SDS011;26301;42.832;23.918;2023-09-19T15:22:27;12.13;;;5.15;;
40591;SDS011;26301;42.832;23.918;2023-09-19T15:24:53;7.57;;;3.88;;
40591;SDS011;26301;42.832;23.918;2023-09-19T15:27:18;8.48;;;4.32;;
40591;SDS011;26301;42.832;23.918;2023-09-19T15:29:45;7.45;;;4.60;;
40591;SDS011;26301;42.832;23.918;2023-09-19T15:32:11;7.55;;;4.40;;
40591;SDS011;26301;42.832;23.918;2023-09-19T15:34:37;9.77;;;4.32;;
40591;SDS011;26301;42.832;23.918;2023-09-19T15:37:02;7.10;;;4.55;;
40591;SDS011;26301;42.832;23.918;2023-09-19T15:39:31;8.63;;;4.60;;
40591;SDS011;26301;42.832;23.918;2023-09-19T15:42:00;13.68;;;5.28;;
40591;SDS011;26301;42.832;23.918;2023-09-19T15:44:26;8.27;;;4.28;;
40591;SDS011;26301;42.832;23.918;2023-09-19T15:46:52;10.27;;;4.60;;
40591;SDS011;26301;42.832;23.918;2023-09-19T15:49:17;12.15;;;4.25;;
40591;SDS011;26301;42.832;23.918;2023-09-19T15:51:43;7.85;;;4.57;;
40591;SDS011;26301;42.832;23.918;2023-09-19T15:54:10;11.27;;;5.53;;
40591;SDS011;26301;42.832;23.918;2023-09-19T15:56:40;10.80;;;4.85;;
40591;SDS011;26301;42.832;23.918;2023-09-19T15:59:09;6.63;;;4.47;;
40591;SDS011;26301;42.832;23.918;2023-09-19T16:01:40;8.38;;;4.40;;
40591;SDS011;26301;42.832;23.918;2023-09-19T16:04:07;7.60;;;5.00;;
40591;SDS011;26301;42.832;23.918;2023-09-19T16:06:34;9.10;;;5.20;;
40591;SDS011;26301;42.832;23.918;2023-09-19T16:09:01;9.10;;;4.57;;
40591;SDS011;26301;42.832;23.918;2023-09-19T16:11:29;8.85;;;4.57;;
40591;SDS011;26301;42.832;23.918;2023-09-19T16:13:58;10.73;;;4.55;;
40591;SDS011;26301;42.832;23.918;2023-09-19T16:16:25;7.50;;;4.90;;
40591;SDS011;26301;42.832;23.918;2023-09-19T16:21:27;7.90;;;4.60;;
40591;SDS011;26301;42.832;23.918;2023-09-19T16:23:54;12.20;;;5.22;;
40591;SDS011;26301;42.832;23.918;2023-09-19T16:26:21;10.20;;;4.80;;
40591;SDS011;26301;42.832;23.918;2023-09-19T16:28:52;5.88;;;4.35;;
40591;SDS011;26301;42.832;23.918;2023-09-19T16:31:19;8.52;;;4.90;;
40591;SDS011;26301;42.832;23.918;2023-09-19T16:33:46;8.13;;;4.85;;
40591;SDS011;26301;42.832;23.918;2023-09-19T16:36:16;6.88;;;5.43;;
40591;SDS011;26301;42.832;23.918;2023-09-19T16:38:43;6.25;;;4.75;;
40591;SDS011;26301;42.832;23.918;2023-09-19T16:41:11;6.53;;;4.57;;
40591;SDS011;26301;42.832;23.918;2023-09-19T16:43:38;7.68;;;4.45;;
40591;SDS011;26301;42.832;23.918;2023-09-19T16:46:04;7.18;;;4.70;;
40591;SDS011;26301;42.832;23.918;2023-09-19T16:48:37;9.15;;;5.03;;
40591;SDS011;26301;42.832;23.918;2023-09-19T16:51:04;6.35;;;4.80;;
40591;SDS011;26301;42.832;23.918;2023-09-19T16:53:33;11.15;;;6.63;;
40591;SDS011;26301;42.832;23.918;2023-09-19T16:56:06;9.90;;;6.45;;
40591;SDS011;26301;42.832;23.918;2023-09-19T16:58:38;16.50;;;10.57;;
40591;SDS011;26301;42.832;23.918;2023-09-19T17:01:09;20.20;;;10.60;;
40591;SDS011;26301;42.832;23.918;2023-09-19T17:03:36;11.05;;;8.82;;
40591;SDS011;26301;42.832;23.918;2023-09-19T17:06:03;12.50;;;7.95;;
40591;SDS011;26301;42.832;23.918;2023-09-19T17:08:29;9.75;;;6.50;;
40591;SDS011;26301;42.832;23.918;2023-09-19T17:11:02;8.90;;;5.82;;
40591;SDS011;26301;42.832;23.918;2023-09-19T17:13:29;10.23;;;6.15;;
40591;SDS011;26301;42.832;23.918;2023-09-19T17:16:06;6.93;;;5.65;;
40591;SDS011;26301;42.832;23.918;2023-09-19T17:18:33;5.90;;;5.30;;
40591;SDS011;26301;42.832;23.918;2023-09-19T17:20:59;7.53;;;5.80;;
40591;SDS011;26301;42.832;23.918;2023-09-19T17:23:26;11.82;;;5.93;;
40591;SDS011;26301;42.832;23.918;2023-09-19T17:28:50;9.10;;;5.57;;
40591;SDS011;26301;42.832;23.918;2023-09-19T17:31:21;8.40;;;6.20;;
40591;SDS011;26301;42.832;23.918;2023-09-19T17:36:20;11.05;;;5.75;;
40591;SDS011;26301;42.832;23.918;2023-09-19T17:38:47;7.15;;;5.55;;
40591;SDS011;26301;42.832;23.918;2023-09-19T17:41:14;6.65;;;5.32;;
40591;SDS011;26301;42.832;23.918;2023-09-19T17:43:44;7.00;;;5.78;;
40591;SDS011;26301;42.832;23.918;2023-09-19T17:46:15;9.15;;;6.00;;
40591;SDS011;26301;42.832;23.918;2023-09-19T17:48:42;8.02;;;6.28;;
40591;SDS011;26301;42.832;23.918;2023-09-19T17:51:10;15.07;;;5.82;;
40591;SDS011;26301;42.832;23.918;2023-09-19T17:53:37;6.80;;;5.28;;
40591;SDS011;26301;42.832;23.918;2023-09-19T17:56:06;9.82;;;5.97;;
40591;SDS011;26301;42.832;23.918;2023-09-19T17:58:35;12.33;;;6.60;;
40591;SDS011;26301;42.832;23.918;2023-09-19T18:01:10;10.02;;;5.85;;
40591;SDS011;26301;42.832;23.918;2023-09-19T18:03:38;7.85;;;5.93;;
40591;SDS011;26301;42.832;23.918;2023-09-19T18:06:06;8.40;;;5.82;;
40591;SDS011;26301;42.832;23.918;2023-09-19T18:08:32;6.85;;;5.80;;
40591;SDS011;26301;42.832;23.918;2023-09-19T18:10:58;8.60;;;6.05;;
40591;SDS011;26301;42.832;23.918;2023-09-19T18:13:25;9.82;;;5.72;;
40591;SDS011;26301;42.832;23.918;2023-09-19T18:15:52;8.40;;;6.18;;
40591;SDS011;26301;42.832;23.918;2023-09-19T18:18:19;8.57;;;6.10;;
40591;SDS011;26301;42.832;23.918;2023-09-19T18:20:45;10.02;;;5.75;;
40591;SDS011;26301;42.832;23.918;2023-09-19T18:23:12;8.90;;;6.55;;
40591;SDS011;26301;42.832;23.918;2023-09-19T18:25:37;9.38;;;5.72;;
40591;SDS011;26301;42.832;23.918;2023-09-19T18:28:03;7.15;;;5.70;;
40591;SDS011;26301;42.832;23.918;2023-09-19T18:30:30;8.55;;;5.65;;
40591;SDS011;26301;42.832;23.918;2023-09-19T18:32:56;10.93;;;5.65;;
40591;SDS011;26301;42.832;23.918;2023-09-19T18:35:24;10.48;;;5.97;;
40591;SDS011;26301;42.832;23.918;2023-09-19T18:37:52;10.68;;;5.15;;
40591;SDS011;26301;42.832;23.918;2023-09-19T18:40:20;7.50;;;6.05;;
40591;SDS011;26301;42.832;23.918;2023-09-19T18:42:46;9.52;;;5.82;;
40591;SDS011;26301;42.832;23.918;2023-09-19T18:45:13;8.38;;;5.72;;
40591;SDS011;26301;42.832;23.918;2023-09-19T18:47:39;8.98;;;6.03;;
40591;SDS011;26301;42.832;23.918;2023-09-19T18:50:06;11.80;;;6.53;;
40591;SDS011;26301;42.832;23.918;2023-09-19T18:52:38;11.70;;;5.90;;
40591;SDS011;26301;42.832;23.918;2023-09-19T18:55:07;9.50;;;6.10;;
40591;SDS011;26301;42.832;23.918;2023-09-19T18:57:35;15.48;;;6.43;;
40591;SDS011;26301;42.832;23.918;2023-09-19T19:00:02;10.27;;;6.07;;
40591;SDS011;26301;42.832;23.918;2023-09-19T19:02:31;12.45;;;6.55;;
40591;SDS011;26301;42.832;23.918;2023-09-19T19:04:57;10.00;;;6.10;;
40591;SDS011;26301;42.832;23.918;2023-09-19T19:07:26;10.82;;;6.50;;
40591;SDS011;26301;42.832;23.918;2023-09-19T19:13:38;12.90;;;6.40;;
40591;SDS011;26301;42.832;23.918;2023-09-19T19:19:24;10.40;;;5.97;;
40591;SDS011;26301;42.832;23.918;2023-09-19T19:31:37;10.65;;;6.43;;
40591;SDS011;26301;42.832;23.918;2023-09-19T19:35:11;9.43;;;6.28;;
40591;SDS011;26301;42.832;23.918;2023-09-19T19:38:12;10.10;;;6.18;;